Terminal Aerodrome Forecast
Issued by NWS Charleston, WV

Current Version | Previous Version | Graphics & Text | Print | Product List | Glossary Off
Versions: 1 2 3 4 5 6 7 8 9 10 11 12 13 14 15 16 17 18 19 20 21 22 23 24 25 26 27 28 29

000
FTUS41 KRLX 292003 AAA
TAFHTS
TAF AMD
KHTS 292003Z 2920/3018 05004KT P6SM OVC022
     FM292200 03005KT P6SM BKN035
     FM292300 05005KT P6SM SKC
     FM301100 09004KT P6SM BKN060
     FM301600 15006KT P6SM BKN050=

USA.gov is the U.S. government's official web portal to all federal, state and local government web resources and services.